createdAt,value
2015-12-10T00:00:37.307Z,2
2015-12-10T00:01:37.246Z,1.9
2015-12-10T00:02:37.171Z,1.9
2015-12-10T00:03:37.127Z,1.9
2015-12-10T00:04:37.068Z,2
2015-12-10T00:05:37.008Z,2
2015-12-10T00:06:36.949Z,1.9
2015-12-10T00:07:36.888Z,1.7
2015-12-10T00:08:36.830Z,1.8
2015-12-10T00:09:36.769Z,1.9
2015-12-10T00:10:36.710Z,2
2015-12-10T00:11:36.666Z,2
2015-12-10T00:12:36.606Z,1.9
2015-12-10T00:13:36.546Z,1.9
2015-12-10T00:14:36.486Z,1.9
2015-12-10T00:15:36.426Z,1.9
2015-12-10T00:16:36.382Z,1.9
2015-12-10T00:17:36.307Z,2
2015-12-10T00:18:36.247Z,2
2015-12-10T00:19:36.203Z,2
2015-12-10T00:20:36.144Z,2
2015-12-10T00:21:36.083Z,2
2015-12-10T00:22:36.023Z,1.9
2015-12-10T00:23:35.964Z,1.9
2015-12-10T00:24:35.904Z,1.9
2015-12-10T00:25:35.844Z,2
2015-12-10T00:26:35.785Z,2
2015-12-10T00:27:35.740Z,2.1
2015-12-10T00:28:35.677Z,2.1
2015-12-10T00:29:35.619Z,2.2
2015-12-10T00:30:35.558Z,2.1
2015-12-10T00:31:35.515Z,2
2015-12-10T00:32:35.437Z,2
2015-12-10T00:33:35.393Z,2
2015-12-10T00:34:35.333Z,2
2015-12-10T00:35:35.273Z,1.9
2015-12-10T00:36:35.213Z,1.9
2015-12-10T00:37:35.154Z,1.8
2015-12-10T00:38:35.094Z,1.9
2015-12-10T00:39:35.049Z,2
2015-12-10T00:40:34.991Z,2.1
2015-12-10T00:41:34.930Z,2
2015-12-10T00:42:34.871Z,1.9
2015-12-10T00:43:34.811Z,1.9
2015-12-10T00:44:34.751Z,1.9
2015-12-10T00:45:34.707Z,1.8
2015-12-10T00:46:34.632Z,1.9
2015-12-10T00:47:34.572Z,1.9
2015-12-10T00:48:34.527Z,2
2015-12-10T00:49:34.472Z,2
2015-12-10T00:50:34.411Z,2
2015-12-10T00:51:34.352Z,1.9
2015-12-10T00:52:34.291Z,1.9
2015-12-10T00:53:34.233Z,1.9
2015-12-10T00:54:34.172Z,1.9
2015-12-10T00:55:34.118Z,2
2015-12-10T00:56:34.058Z,1.9
2015-12-10T00:57:33.999Z,1.8
2015-12-10T00:58:33.939Z,1.7
2015-12-10T00:59:33.894Z,1.8
2015-12-10T01:00:33.837Z,1.7
2015-12-10T01:01:33.777Z,1.7
2015-12-10T01:02:33.717Z,1.6
2015-12-10T01:03:33.658Z,1.5
2015-12-10T01:04:33.598Z,1.6
2015-12-10T01:05:33.535Z,1.6
2015-12-10T01:06:33.475Z,1.6
2015-12-10T01:07:33.415Z,1.5
2015-12-10T01:08:33.356Z,1.5
2015-12-10T01:09:33.296Z,1.4
2015-12-10T01:10:33.251Z,1.4
2015-12-10T01:11:33.192Z,1.3
2015-12-10T01:12:33.132Z,1.2
2015-12-10T01:13:33.073Z,1.3
2015-12-10T01:14:33.013Z,1.3
2015-12-10T01:15:32.953Z,1.3
2015-12-10T01:16:32.893Z,1.2
2015-12-10T01:17:32.833Z,1.2
2015-12-10T01:18:32.773Z,1.1
2015-12-10T01:19:32.715Z,1.3
2015-12-10T01:20:32.654Z,1.4
2015-12-10T01:21:32.611Z,1.4
2015-12-10T01:22:32.550Z,1.3
2015-12-10T01:23:32.491Z,1.3
2015-12-10T01:24:32.431Z,1.4
2015-12-10T01:25:32.371Z,1.4
2015-12-10T01:26:32.327Z,1.3
2015-12-10T01:27:32.252Z,1.4
2015-12-10T01:28:32.192Z,1.3
2015-12-10T01:29:32.148Z,1.3
2015-12-10T01:30:32.089Z,1.3
2015-12-10T01:31:32.028Z,1.3
2015-12-10T01:32:31.969Z,1.3
2015-12-10T01:33:31.909Z,1.2
2015-12-10T01:34:31.849Z,1.2
2015-12-10T01:35:31.789Z,1.2
2015-12-10T01:36:31.745Z,1.3
2015-12-10T01:37:31.700Z,1.2
2015-12-10T01:38:31.626Z,1.2
2015-12-10T01:39:31.551Z,1.2
2015-12-10T01:40:31.506Z,1.2
2015-12-10T01:41:31.447Z,1.3
2015-12-10T01:42:31.386Z,1.3
2015-12-10T01:43:31.328Z,1.4
2015-12-10T01:44:31.267Z,1.4
2015-12-10T01:45:31.208Z,1.3
2015-12-10T01:46:31.164Z,1.3
2015-12-10T01:47:31.086Z,1.3
2015-12-10T01:48:31.026Z,1.4
2015-12-10T01:49:30.966Z,1.3
2015-12-10T01:50:30.922Z,1.4
2015-12-10T01:51:30.861Z,1.3
2015-12-10T01:52:30.803Z,1.2
2015-12-10T01:53:30.742Z,1.3
2015-12-10T01:54:30.682Z,1.2
2015-12-10T01:55:30.623Z,1.2
2015-12-10T01:56:30.580Z,1.2
2015-12-10T01:57:30.503Z,1.2
2015-12-10T01:58:30.444Z,1.2
2015-12-10T01:59:30.400Z,1.2
2015-12-10T02:00:30.335Z,1.1
2015-12-10T02:01:30.275Z,1.3
2015-12-10T02:02:30.216Z,1.2
2015-12-10T02:03:30.156Z,1.3
2015-12-10T02:04:30.097Z,1.3
2015-12-10T02:05:30.052Z,1.2
2015-12-10T02:06:29.977Z,1.1
2015-12-10T02:07:29.933Z,1
2015-12-10T02:08:29.873Z,1.1
2015-12-10T02:09:29.814Z,1.3
2015-12-10T02:10:29.753Z,1.3
2015-12-10T02:11:29.694Z,1.3
2015-12-10T02:12:29.633Z,1.3
2015-12-10T02:13:29.574Z,1.4
2015-12-10T02:14:29.514Z,1.3
2015-12-10T02:15:29.454Z,1.3
2015-12-10T02:16:29.410Z,1.4
2015-12-10T02:17:29.350Z,1.4
2015-12-10T02:18:29.291Z,1.4
2015-12-10T02:19:29.231Z,1.3
2015-12-10T02:20:29.172Z,1.2
2015-12-10T02:21:29.112Z,1.3
2015-12-10T02:22:29.052Z,1.3
2015-12-10T02:23:29.008Z,1.3
2015-12-10T02:24:28.948Z,1.4
2015-12-10T02:25:28.885Z,1.4
2015-12-10T02:26:28.826Z,1.4
2015-12-10T02:27:28.766Z,1.4
2015-12-10T02:28:28.707Z,1.5
2015-12-10T02:29:28.647Z,1.5
2015-12-10T02:30:28.587Z,1.5
2015-12-10T02:31:28.526Z,1.6
2015-12-10T02:32:28.468Z,1.6
2015-12-10T02:33:28.408Z,1.6
2015-12-10T02:34:28.348Z,1.6
2015-12-10T02:35:28.304Z,1.5
2015-12-10T02:36:28.244Z,1.4
2015-12-10T02:37:28.184Z,1.2
2015-12-10T02:38:28.124Z,1.1
2015-12-10T02:39:28.064Z,1
2015-12-10T02:40:28.004Z,1.1
2015-12-10T02:41:27.946Z,1.2
2015-12-10T02:42:27.885Z,1.2
2015-12-10T02:43:27.826Z,1.3
2015-12-10T02:44:27.766Z,1.2
2015-12-10T02:45:27.706Z,1.2
2015-12-10T02:46:27.662Z,1.2
2015-12-10T02:47:27.602Z,1.2
2015-12-10T02:48:27.543Z,1.1
2015-12-10T02:49:27.482Z,1
2015-12-10T02:50:27.423Z,1.1
2015-12-10T02:51:27.363Z,1.1
2015-12-10T02:52:27.304Z,1
2015-12-10T02:53:27.244Z,1.1
2015-12-10T02:54:27.324Z,1.1
2015-12-10T02:55:27.140Z,1.1
2015-12-10T02:56:27.080Z,1
2015-12-10T02:57:27.021Z,1
2015-12-10T02:58:26.960Z,1
2015-12-10T02:59:26.900Z,1.1
2015-12-10T03:00:26.840Z,1.1
2015-12-10T03:01:26.781Z,1
2015-12-10T03:02:26.721Z,1.1
2015-12-10T03:03:26.662Z,1.1
2015-12-10T03:04:26.602Z,1
2015-12-10T03:05:26.542Z,0.9
2015-12-10T03:06:26.498Z,0.9
2015-12-10T03:07:26.422Z,1
2015-12-10T03:08:26.378Z,1.1
2015-12-10T03:09:26.320Z,1
2015-12-10T03:10:26.259Z,1
2015-12-10T03:11:26.200Z,1
2015-12-10T03:12:26.139Z,1
2015-12-10T03:13:26.080Z,1
2015-12-10T03:14:26.017Z,1.1
2015-12-10T03:15:25.958Z,1.1
2015-12-10T03:16:25.914Z,1.2
2015-12-10T03:17:25.854Z,1.2
2015-12-10T03:18:25.794Z,1.2
2015-12-10T03:19:25.734Z,1.2
2015-12-10T03:20:25.674Z,1.2
2015-12-10T03:21:25.630Z,1.2
2015-12-10T03:22:25.555Z,1.2
2015-12-10T03:23:25.495Z,1.2
2015-12-10T03:24:25.436Z,1.3
2015-12-10T03:25:25.375Z,1.2
2015-12-10T03:26:25.331Z,1.3
2015-12-10T03:27:25.272Z,1.3
2015-12-10T03:28:25.211Z,1.3
2015-12-10T03:29:25.153Z,1.3
2015-12-10T03:30:25.092Z,1.3
2015-12-10T03:31:25.033Z,1.4
2015-12-10T03:32:24.973Z,1.3
2015-12-10T03:33:24.914Z,1.2
2015-12-10T03:34:24.853Z,1.1
2015-12-10T03:35:24.794Z,1.2
2015-12-10T03:36:24.734Z,1.1
2015-12-10T03:37:24.675Z,1.2
2015-12-10T03:38:24.615Z,1.1
2015-12-10T03:39:24.570Z,1.2
2015-12-10T03:40:24.511Z,1.2
2015-12-10T03:41:24.451Z,1.2
2015-12-10T03:42:24.391Z,1.3
2015-12-10T03:43:24.332Z,1.3
2015-12-10T03:44:24.271Z,1.4
2015-12-10T03:45:24.227Z,1.4
2015-12-10T03:46:24.152Z,1.4
2015-12-10T03:47:24.108Z,1.4
2015-12-10T03:48:24.048Z,1.5
2015-12-10T03:49:23.988Z,1.5
2015-12-10T03:50:23.929Z,1.5
2015-12-10T03:51:23.869Z,1.4
2015-12-10T03:52:23.810Z,1.4
2015-12-10T03:53:23.747Z,1.4
2015-12-10T03:54:23.688Z,1.3
2015-12-10T03:55:23.644Z,1.3
2015-12-10T03:56:23.568Z,1.3
2015-12-10T03:57:23.508Z,1.3
2015-12-10T03:58:23.449Z,1.3
2015-12-10T03:59:23.404Z,1.3
2015-12-10T04:00:23.344Z,1.3
2015-12-10T04:01:23.285Z,1.3
2015-12-10T04:02:23.225Z,1.3
2015-12-10T04:03:23.180Z,1.3
2015-12-10T04:04:23.105Z,1.3
2015-12-10T04:05:23.046Z,1.3
2015-12-10T04:06:23.002Z,1.3
2015-12-10T04:07:22.942Z,1.3
2015-12-10T04:08:22.882Z,1.3
2015-12-10T04:09:22.822Z,1.4
2015-12-10T04:10:22.763Z,1.4
2015-12-10T04:11:22.702Z,1.4
2015-12-10T04:12:22.643Z,1.4
2015-12-10T04:13:22.583Z,1.4
2015-12-10T04:14:22.524Z,1.4
2015-12-10T04:15:22.463Z,1.3
2015-12-10T04:16:22.419Z,1.4
2015-12-10T04:17:22.344Z,1.3
2015-12-10T04:18:22.300Z,1.4
2015-12-10T04:19:22.240Z,1.5
2015-12-10T04:20:22.181Z,1.5
2015-12-10T04:21:22.121Z,1.6
2015-12-10T04:22:22.061Z,1.6
2015-12-10T04:23:22.002Z,1.6
2015-12-10T04:24:21.941Z,1.4
2015-12-10T04:25:21.882Z,1.4
2015-12-10T04:26:21.837Z,1.4
2015-12-10T04:27:21.779Z,1.4
2015-12-10T04:28:21.718Z,1.4
2015-12-10T04:29:21.659Z,1.4
2015-12-10T04:30:21.599Z,1.4
2015-12-10T04:31:21.540Z,1.3
2015-12-10T04:32:21.480Z,1.3
2015-12-10T04:33:21.418Z,1.2
2015-12-10T04:34:21.373Z,1.1
2015-12-10T04:35:21.297Z,1
2015-12-10T04:36:21.253Z,1
2015-12-10T04:37:21.193Z,1
2015-12-10T04:38:21.134Z,1
2015-12-10T04:39:21.073Z,0.9
2015-12-10T04:40:21.015Z,1
2015-12-10T04:41:20.954Z,1
2015-12-10T04:42:20.895Z,1.1
2015-12-10T04:43:20.834Z,1.2
2015-12-10T04:44:20.791Z,1.2
2015-12-10T04:45:20.731Z,1.2
2015-12-10T04:46:20.671Z,1.3
2015-12-10T04:47:20.612Z,1.3
2015-12-10T04:48:20.567Z,1.4
2015-12-10T04:49:20.492Z,1.4
2015-12-10T04:50:20.432Z,1.3
2015-12-10T04:51:20.373Z,1.2
2015-12-10T04:52:20.313Z,1.2
2015-12-10T04:53:20.254Z,1.2
2015-12-10T04:54:20.193Z,1.2
2015-12-10T04:55:20.133Z,1.2
2015-12-10T04:56:20.074Z,1.3
2015-12-10T04:57:20.014Z,1.3
2015-12-10T04:58:19.970Z,1.4
2015-12-10T04:59:19.910Z,1.3
2015-12-10T05:00:19.851Z,1.3
2015-12-10T05:01:19.791Z,1.3
2015-12-10T05:02:19.731Z,1.4
2015-12-10T05:03:19.671Z,1.4
2015-12-10T05:04:19.612Z,1.4
2015-12-10T05:05:19.551Z,1.4
2015-12-10T05:06:19.492Z,1.5
2015-12-10T05:07:19.432Z,1.6
2015-12-10T05:08:19.389Z,1.7
2015-12-10T05:09:19.329Z,1.8
2015-12-10T05:10:19.270Z,1.8
2015-12-10T05:11:19.209Z,1.8
2015-12-10T05:12:19.149Z,1.9
2015-12-10T05:13:19.086Z,1.9
2015-12-10T05:14:19.027Z,1.9
2015-12-10T05:15:18.967Z,1.8
2015-12-10T05:16:18.908Z,1.8
2015-12-10T05:17:18.848Z,1.8
2015-12-10T05:18:18.803Z,1.9
2015-12-10T05:19:18.744Z,2
2015-12-10T05:20:18.684Z,2
2015-12-10T05:21:18.639Z,2
2015-12-10T05:22:18.565Z,2
2015-12-10T05:23:18.505Z,2.1
2015-12-10T05:24:18.445Z,2.1
2015-12-10T05:25:18.401Z,2.2
2015-12-10T05:26:18.341Z,2.2
2015-12-10T05:27:18.281Z,2.2
2015-12-10T05:28:18.223Z,2.2
2015-12-10T05:29:18.162Z,2.2
2015-12-10T05:30:18.102Z,2.2
2015-12-10T05:31:18.058Z,2.2
2015-12-10T05:32:17.999Z,2.2
2015-12-10T05:33:17.923Z,2.1
2015-12-10T05:34:17.878Z,2.1
2015-12-10T05:35:17.819Z,2
2015-12-10T05:36:17.759Z,2
2015-12-10T05:37:17.700Z,2
2015-12-10T05:38:17.639Z,1.9
2015-12-10T05:39:17.627Z,1.9
2015-12-10T05:40:17.520Z,1.9
2015-12-10T05:41:17.477Z,1.9
2015-12-10T05:42:17.417Z,1.9
2015-12-10T05:43:17.358Z,2
2015-12-10T05:44:17.297Z,2
2015-12-10T05:45:17.253Z,1.9
2015-12-10T05:46:17.194Z,1.8
2015-12-10T05:47:17.118Z,1.8
2015-12-10T05:48:17.059Z,1.8
2015-12-10T05:49:17.014Z,1.8
2015-12-10T05:50:16.936Z,1.8
2015-12-10T05:51:16.892Z,1.8
2015-12-10T05:52:16.833Z,1.8
2015-12-10T05:53:16.772Z,1.6
2015-12-10T05:54:16.713Z,1.7
2015-12-10T05:55:16.653Z,1.5
2015-12-10T05:56:16.593Z,1.5
2015-12-10T05:57:16.533Z,1.6
2015-12-10T05:58:16.474Z,1.6
2015-12-10T05:59:16.429Z,1.6
2015-12-10T06:00:16.355Z,1.6
2015-12-10T06:01:16.310Z,1.5
2015-12-10T06:02:16.250Z,1.4
2015-12-10T06:03:16.190Z,1.4
2015-12-10T06:04:16.131Z,1.4
2015-12-10T06:05:16.072Z,1.3
2015-12-10T06:06:16.011Z,1.3
2015-12-10T06:07:15.952Z,1.3
2015-12-10T06:08:15.891Z,1.3
2015-12-10T06:09:15.833Z,1.3
2015-12-10T06:10:15.772Z,1.3
2015-12-10T06:11:15.728Z,1.2
2015-12-10T06:12:15.668Z,1.3
2015-12-10T06:13:15.608Z,1.3
2015-12-10T06:14:15.550Z,1.3
2015-12-10T06:15:15.489Z,1.4
2015-12-10T06:16:15.430Z,1.5
2015-12-10T06:17:15.370Z,1.5
2015-12-10T06:18:15.311Z,1.5
2015-12-10T06:19:15.250Z,1.5
2015-12-10T06:20:15.207Z,1.6
2015-12-10T06:21:15.146Z,1.6
2015-12-10T06:22:15.088Z,1.6
2015-12-10T06:23:15.027Z,1.6
2015-12-10T06:24:14.968Z,1.7
2015-12-10T06:25:14.908Z,1.6
2015-12-10T06:26:14.848Z,1.7
2015-12-10T06:27:14.788Z,1.7
2015-12-10T06:28:14.728Z,1.7
2015-12-10T06:29:14.669Z,1.8
2015-12-10T06:30:14.609Z,1.9
2015-12-10T06:31:14.565Z,1.9
2015-12-10T06:32:14.502Z,1.9
2015-12-10T06:33:14.443Z,1.9
2015-12-10T06:34:14.383Z,1.9
2015-12-10T06:35:14.323Z,1.8
2015-12-10T06:36:14.262Z,1.9
2015-12-10T06:37:14.203Z,1.9
2015-12-10T06:38:14.143Z,1.9
2015-12-10T06:39:14.084Z,1.9
2015-12-10T06:40:14.040Z,1.8
2015-12-10T06:41:13.980Z,1.8
2015-12-10T06:42:13.921Z,1.8
2015-12-10T06:43:13.860Z,1.8
2015-12-10T06:44:13.801Z,1.8
2015-12-10T06:45:13.740Z,1.8
2015-12-10T06:46:13.682Z,1.9
2015-12-10T06:47:13.621Z,2
2015-12-10T06:48:13.561Z,2
2015-12-10T06:49:13.501Z,2
2015-12-10T06:50:13.442Z,2
2015-12-10T06:51:13.398Z,1.9
2015-12-10T06:52:13.338Z,1.9
2015-12-10T06:53:13.278Z,1.8
2015-12-10T06:54:13.218Z,1.7
2015-12-10T06:55:13.175Z,1.6
2015-12-10T06:56:13.099Z,1.6
2015-12-10T06:57:13.040Z,1.7
2015-12-10T06:58:12.979Z,1.7
2015-12-10T06:59:12.920Z,1.8
2015-12-10T07:00:12.860Z,1.7
2015-12-10T07:01:12.804Z,1.8
2015-12-10T07:02:12.745Z,1.6
2015-12-10T07:03:12.685Z,1.5
2015-12-10T07:04:12.625Z,1.5
2015-12-10T07:05:12.581Z,1.5
2015-12-10T07:06:12.506Z,1.5
2015-12-10T07:07:12.477Z,1.5
2015-12-10T07:08:12.402Z,1.4
2015-12-10T07:09:12.332Z,1.4
2015-12-10T07:10:12.256Z,1.5
2015-12-10T07:11:12.180Z,1.5
2015-12-10T07:12:12.118Z,1.5
2015-12-10T07:13:12.042Z,1.5
2015-12-10T07:14:11.983Z,1.6
2015-12-10T07:15:11.913Z,1.6
2015-12-10T07:16:11.833Z,1.6
2015-12-10T07:17:11.767Z,1.7
2015-12-10T07:18:11.718Z,1.8
2015-12-10T07:19:11.651Z,1.8
2015-12-10T07:20:11.589Z,1.8
2015-12-10T07:21:11.527Z,1.7
2015-12-10T07:22:11.466Z,1.6
2015-12-10T07:23:11.403Z,1.6
2015-12-10T07:24:11.343Z,1.7
2015-12-10T07:25:11.281Z,1.6
2015-12-10T07:26:11.221Z,1.6
2015-12-10T07:27:11.176Z,1.6
2015-12-10T07:28:11.115Z,1.7
2015-12-10T07:29:11.055Z,1.6
2015-12-10T07:30:10.995Z,1.6
2015-12-10T07:31:10.936Z,1.6
2015-12-10T07:32:10.875Z,1.7
2015-12-10T07:33:10.816Z,1.7
2015-12-10T07:34:10.756Z,1.7
2015-12-10T07:35:10.697Z,1.7
2015-12-10T07:36:10.637Z,1.7
2015-12-10T07:37:10.577Z,1.7
2015-12-10T07:38:10.533Z,1.7
2015-12-10T07:39:10.472Z,1.8
2015-12-10T07:40:10.413Z,1.8
2015-12-10T07:41:10.353Z,1.9
2015-12-10T07:42:10.294Z,1.7
2015-12-10T07:43:10.234Z,1.7
2015-12-10T07:44:10.175Z,1.6
2015-12-10T07:45:10.114Z,1.8
2015-12-10T07:46:10.055Z,1.9
2015-12-10T07:47:09.995Z,2.2
2015-12-10T07:48:09.935Z,2.6
2015-12-10T07:49:09.892Z,2.9
2015-12-10T07:50:09.814Z,2.9
2015-12-10T07:51:09.770Z,2.9
2015-12-10T07:52:09.709Z,2.7
2015-12-10T07:53:09.650Z,2.6
2015-12-10T07:54:09.590Z,2.5
2015-12-10T07:55:09.530Z,2.6
2015-12-10T07:56:09.469Z,2.6
2015-12-10T07:57:09.426Z,2.8
2015-12-10T07:58:09.367Z,2.8
2015-12-10T07:59:09.306Z,2.9
2015-12-10T08:00:09.247Z,2.9
2015-12-10T08:01:09.188Z,2.9
2015-12-10T08:02:09.143Z,2.8
2015-12-10T08:03:09.083Z,2.8
2015-12-10T08:04:09.039Z,2.8
2015-12-10T08:05:08.963Z,2.8
2015-12-10T08:06:08.904Z,2.7
2015-12-10T08:07:08.844Z,2.7
2015-12-10T08:08:08.799Z,2.7
2015-12-10T08:09:08.724Z,2.7
2015-12-10T08:10:08.680Z,2.6
2015-12-10T08:11:08.621Z,2.6
2015-12-10T08:12:08.560Z,2.7
2015-12-10T08:13:08.502Z,2.7
2015-12-10T08:14:08.441Z,2.8
2015-12-10T08:15:08.382Z,3
2015-12-10T08:16:08.338Z,3.1
2015-12-10T08:17:08.278Z,3.2
2015-12-10T08:18:08.219Z,3.2
2015-12-10T08:19:08.158Z,3.3
2015-12-10T08:20:08.099Z,3.4
2015-12-10T08:21:08.055Z,3.5
2015-12-10T08:22:07.995Z,3.5
2015-12-10T08:23:07.935Z,3.6
2015-12-10T08:24:07.876Z,3.7
2015-12-10T08:25:07.815Z,3.7
2015-12-10T08:26:07.756Z,3.8
2015-12-10T08:27:07.697Z,3.8
2015-12-10T08:28:07.652Z,3.8
2015-12-10T08:29:07.593Z,3.8
2015-12-10T08:30:07.533Z,3.8
2015-12-10T08:31:07.486Z,3.9
2015-12-10T08:32:07.427Z,3.9
2015-12-10T08:33:07.366Z,3.9
2015-12-10T08:34:07.322Z,4
2015-12-10T08:35:07.246Z,4.2
2015-12-10T08:36:07.202Z,4.3
2015-12-10T08:37:07.143Z,4.3
2015-12-10T08:38:07.082Z,4.3
2015-12-10T08:39:07.024Z,4.4
2015-12-10T08:40:06.963Z,4.6
2015-12-10T08:41:06.920Z,4.8
2015-12-10T08:42:06.860Z,5
2015-12-10T08:43:06.800Z,5.1
2015-12-10T08:44:06.740Z,5.1
2015-12-10T08:45:06.696Z,5.3
2015-12-10T08:46:06.637Z,5.7
2015-12-10T08:47:06.577Z,6.3
2015-12-10T08:48:06.532Z,6.9
2015-12-10T08:49:06.473Z,7.6
2015-12-10T08:50:06.429Z,8.3
2015-12-10T08:51:06.369Z,8.8
2015-12-10T08:52:06.309Z,9.1
2015-12-10T08:53:06.265Z,9.3
2015-12-10T08:54:06.206Z,9.6
2015-12-10T08:55:06.162Z,9.8
2015-12-10T08:56:06.101Z,10
2015-12-10T08:57:06.042Z,10.3
2015-12-10T08:58:05.998Z,10.7
2015-12-10T08:59:05.954Z,10.7
2015-12-10T09:00:05.893Z,10.4
2015-12-10T09:01:05.850Z,10.5
2015-12-10T09:02:05.790Z,10.6
2015-12-10T09:03:05.746Z,10.9
2015-12-10T09:04:05.702Z,11
2015-12-10T09:05:05.642Z,10.9
2015-12-10T09:06:05.582Z,10.6
2015-12-10T09:07:05.538Z,10.2
2015-12-10T09:08:05.478Z,9.7
2015-12-10T09:09:05.434Z,9.1
2015-12-10T09:10:05.375Z,9.1
2015-12-10T09:11:05.330Z,9
2015-12-10T09:12:05.267Z,9
2015-12-10T09:13:05.223Z,9
2015-12-10T09:14:05.179Z,9
2015-12-10T09:15:05.120Z,9.1
2015-12-10T09:16:05.076Z,9.3
2015-12-10T09:17:05.016Z,9.5
2015-12-10T09:18:04.972Z,9.7
2015-12-10T09:19:04.912Z,10
2015-12-10T09:20:04.867Z,10.1
2015-12-10T09:21:04.808Z,10.4
2015-12-10T09:22:04.748Z,10.5
2015-12-10T09:23:04.704Z,10.6
2015-12-10T09:24:04.660Z,10.8
2015-12-10T09:25:04.601Z,11.1
2015-12-10T09:26:04.556Z,11.4
2015-12-10T09:27:04.497Z,11.5
2015-12-10T09:28:04.452Z,11.6
2015-12-10T09:29:04.392Z,11.7
2015-12-10T09:30:04.348Z,12.2
2015-12-10T09:31:04.288Z,12.3
2015-12-10T09:32:04.245Z,12.8
2015-12-10T09:33:04.216Z,13.1
2015-12-10T09:34:04.141Z,13.4
2015-12-10T09:35:04.096Z,13.6
2015-12-10T09:36:04.036Z,14
2015-12-10T09:37:03.992Z,13.6
2015-12-10T09:38:03.949Z,13.2
2015-12-10T09:39:03.889Z,13
2015-12-10T09:40:03.844Z,12.9
2015-12-10T09:41:03.785Z,13.1
2015-12-10T09:42:03.741Z,12.7
2015-12-10T09:43:03.696Z,13.1
2015-12-10T09:44:03.636Z,13.3
2015-12-10T09:45:03.593Z,13.7
2015-12-10T09:46:03.532Z,12.9
2015-12-10T09:47:03.505Z,12.6
2015-12-10T09:48:03.444Z,12.4
2015-12-10T09:49:03.385Z,12.1
2015-12-10T09:50:03.340Z,11.9
2015-12-10T09:51:03.280Z,11.7
2015-12-10T09:52:03.237Z,11.8
2015-12-10T09:53:03.192Z,11.6
2015-12-10T09:54:03.133Z,11.7
2015-12-10T09:55:03.088Z,11.9
2015-12-10T09:56:03.028Z,11.3
2015-12-10T09:57:02.968Z,11
2015-12-10T09:58:02.924Z,11
2015-12-10T09:59:02.881Z,10.8
2015-12-10T10:00:02.821Z,10.3
2015-12-10T10:01:02.776Z,9.6
2015-12-10T10:02:02.717Z,9.4
2015-12-10T10:03:02.673Z,9.4
2015-12-10T10:04:02.613Z,9
2015-12-10T10:05:02.554Z,8.6
2015-12-10T10:06:02.509Z,8.5
2015-12-10T10:07:02.448Z,8.5
2015-12-10T10:08:02.406Z,8.5
2015-12-10T10:09:02.345Z,8.4
2015-12-10T10:10:02.286Z,8.3
2015-12-10T10:11:02.226Z,8.5
2015-12-10T10:12:02.181Z,8.7
2015-12-10T10:13:02.137Z,8.9
2015-12-10T10:14:02.077Z,9.1
2015-12-10T10:15:02.017Z,9.9
2015-12-10T10:16:01.973Z,10.9
2015-12-10T10:17:01.914Z,11.9
2015-12-10T10:18:01.870Z,13
2015-12-10T10:19:01.810Z,13.5
2015-12-10T10:20:01.765Z,13.8
2015-12-10T10:21:01.721Z,13.8
2015-12-10T10:22:01.658Z,14
2015-12-10T10:23:01.615Z,14
2015-12-10T10:24:01.555Z,13.7
2015-12-10T10:25:01.527Z,12.8
2015-12-10T10:26:01.466Z,12.4
2015-12-10T10:27:01.407Z,12.4
2015-12-10T10:28:01.362Z,12.4
2015-12-10T10:29:01.303Z,12.1
2015-12-10T10:30:01.259Z,12.2
2015-12-10T10:31:01.215Z,12.6
2015-12-10T10:32:01.171Z,12.9
2015-12-10T10:33:01.110Z,12.7
2015-12-10T10:34:01.066Z,12.9
2015-12-10T10:35:01.007Z,13.5
2015-12-10T10:36:00.962Z,13.1
2015-12-10T10:37:00.918Z,13.4
2015-12-10T10:38:00.859Z,13.2
2015-12-10T10:39:00.815Z,12.5
2015-12-10T10:40:00.755Z,12.6
2015-12-10T10:41:00.710Z,11.4
2015-12-10T10:42:00.651Z,9.9
2015-12-10T10:43:00.606Z,9
2015-12-10T10:44:00.546Z,8.5
2015-12-10T10:45:00.487Z,8.1
2015-12-10T10:46:00.443Z,8.1
2015-12-10T10:47:00.384Z,8.2
2015-12-10T10:48:00.339Z,8.3
2015-12-10T10:49:00.279Z,8.2
2015-12-10T10:50:00.220Z,8.3
2015-12-10T10:51:00.176Z,8.3
2015-12-10T10:52:00.115Z,8.3
2015-12-10T10:53:00.070Z,8.1
2015-12-10T10:54:00.011Z,8.1
2015-12-10T10:54:59.951Z,8.6
2015-12-10T10:55:59.908Z,9.6
2015-12-10T10:56:59.848Z,11
2015-12-10T10:57:59.803Z,12
2015-12-10T10:58:59.759Z,12.6
2015-12-10T10:59:59.700Z,13.3
2015-12-10T11:00:59.639Z,14
2015-12-10T11:01:59.595Z,14.1
2015-12-10T11:02:59.551Z,14.3
2015-12-10T11:03:59.491Z,15
2015-12-10T11:04:59.447Z,15.3
2015-12-10T11:05:59.403Z,15
2015-12-10T11:06:59.343Z,14.5
2015-12-10T11:07:59.283Z,13.8
2015-12-10T11:08:59.239Z,12.7
2015-12-10T11:09:59.196Z,11.5
2015-12-10T11:10:59.135Z,10.8
2015-12-10T11:11:59.091Z,10.3
2015-12-10T11:12:59.031Z,9.8
2015-12-10T11:13:58.972Z,9.4
2015-12-10T11:14:58.943Z,9.3
2015-12-10T11:15:58.868Z,9.2
2015-12-10T11:16:58.807Z,9.2
2015-12-10T11:17:58.763Z,9.3
2015-12-10T11:18:58.704Z,9.7
2015-12-10T11:19:58.659Z,10.4
2015-12-10T11:20:58.600Z,11.3
2015-12-10T11:21:58.556Z,11.7
2015-12-10T11:22:58.496Z,12.3
2015-12-10T11:23:58.451Z,12
2015-12-10T11:24:58.392Z,11.4
2015-12-10T11:25:58.331Z,10.6
2015-12-10T11:26:58.287Z,9.9
2015-12-10T11:27:58.244Z,9.5
2015-12-10T11:28:58.184Z,9.2
2015-12-10T11:29:58.125Z,9.1
2015-12-10T11:30:58.064Z,9
2015-12-10T11:31:58.036Z,8.8
2015-12-10T11:32:57.961Z,8.8
2015-12-10T11:33:57.900Z,8.8
2015-12-10T11:34:57.857Z,9
2015-12-10T11:35:57.797Z,9.4
2015-12-10T11:36:57.753Z,10.4
2015-12-10T11:37:57.693Z,11.1
2015-12-10T11:38:57.650Z,11.9
2015-12-10T11:39:57.589Z,12.5
2015-12-10T11:40:57.545Z,13.1
2015-12-10T11:41:57.485Z,14
2015-12-10T11:42:57.441Z,14.5
2015-12-10T11:43:57.397Z,14.5
2015-12-10T11:44:57.337Z,14.5
2015-12-10T11:45:57.294Z,15.1
2015-12-10T11:46:57.250Z,15.6
2015-12-10T11:47:57.187Z,15.9
2015-12-10T11:48:57.142Z,15.4
2015-12-10T11:49:57.098Z,14.3
2015-12-10T11:50:57.039Z,14.1
2015-12-10T11:51:56.995Z,13.8
2015-12-10T11:52:56.935Z,13.9
2015-12-10T11:53:56.891Z,14.3
2015-12-10T11:54:56.847Z,14.3
2015-12-10T11:55:56.803Z,14.9
2015-12-10T11:56:56.758Z,15.7
2015-12-10T11:57:56.699Z,15.6
2015-12-10T11:58:56.669Z,15.1
2015-12-10T11:59:56.610Z,15.3
2015-12-10T12:00:56.550Z,15.7
2015-12-10T12:01:56.506Z,15.8
2015-12-10T12:02:56.463Z,15.7
2015-12-10T12:03:56.403Z,15.1
2015-12-10T12:04:56.359Z,15.1
2015-12-10T12:05:56.314Z,14.5
2015-12-10T12:06:56.255Z,14.9
2015-12-10T12:07:56.211Z,15
2015-12-10T12:08:56.166Z,15.5
2015-12-10T12:09:56.107Z,15.6
2015-12-10T12:10:56.063Z,15.4
2015-12-10T12:11:56.019Z,15.6
2015-12-10T12:12:55.958Z,15.6
2015-12-10T12:13:55.914Z,16
2015-12-10T12:14:55.871Z,16.3
2015-12-10T12:15:55.811Z,16.3
2015-12-10T12:16:55.767Z,16.1
2015-12-10T12:17:55.723Z,16.3
2015-12-10T12:18:55.663Z,16.4
2015-12-10T12:19:55.618Z,16.3
2015-12-10T12:20:55.575Z,15.7
2015-12-10T12:21:55.515Z,15.1
2015-12-10T12:22:55.471Z,14.8
2015-12-10T12:23:55.426Z,14.6
2015-12-10T12:24:55.366Z,14.4
2015-12-10T12:25:55.322Z,14
2015-12-10T12:26:55.263Z,13.7
2015-12-10T12:27:55.216Z,13.9
2015-12-10T12:28:55.172Z,14
2015-12-10T12:29:55.112Z,14.2
2015-12-10T12:30:55.052Z,14.1
2015-12-10T12:31:55.007Z,13.4
2015-12-10T12:32:54.948Z,13.2
2015-12-10T12:33:54.888Z,13.1
2015-12-10T12:34:54.844Z,13.4
2015-12-10T12:35:54.785Z,13
2015-12-10T12:36:54.741Z,12.6
2015-12-10T12:37:54.681Z,12.3
2015-12-10T12:38:54.636Z,12.6
2015-12-10T12:39:54.577Z,13.1
2015-12-10T12:40:54.532Z,13.6
2015-12-10T12:41:54.473Z,14.3
2015-12-10T12:42:54.425Z,14.4
2015-12-10T12:43:54.413Z,14
2015-12-10T12:44:54.324Z,13.8
2015-12-10T12:45:54.483Z,14.4
2015-12-10T12:46:54.220Z,15
2015-12-10T12:47:54.160Z,15.3
2015-12-10T12:48:54.116Z,15.7
2015-12-10T12:49:54.057Z,15.8
2015-12-10T12:50:54.036Z,15.9
2015-12-10T12:51:53.991Z,15.9
2015-12-10T12:52:53.916Z,16.2
2015-12-10T12:53:53.856Z,16.4
2015-12-10T12:54:53.828Z,16.8
2015-12-10T12:55:53.769Z,17.1
2015-12-10T12:56:53.739Z,16.9
2015-12-10T12:57:53.664Z,16.8
2015-12-10T12:58:53.620Z,16.9
2015-12-10T12:59:53.561Z,17
2015-12-10T13:00:53.516Z,16.7
2015-12-10T13:01:53.473Z,16.7
2015-12-10T13:02:53.422Z,17.1
2015-12-10T13:03:53.363Z,17.3
2015-12-10T13:04:53.319Z,17.3
2015-12-10T13:05:53.275Z,17.3
2015-12-10T13:06:53.231Z,16.9
2015-12-10T13:07:53.171Z,16.7
2015-12-10T13:08:53.128Z,16.2
2015-12-10T13:09:53.083Z,16
2015-12-10T13:10:53.024Z,16
2015-12-10T13:11:52.980Z,16.1
2015-12-10T13:12:52.920Z,16.3
2015-12-10T13:13:52.876Z,16.3
2015-12-10T13:14:52.831Z,16.1
2015-12-10T13:15:52.769Z,16
2015-12-10T13:16:52.725Z,15.8
2015-12-10T13:17:52.680Z,15.7
2015-12-10T13:18:52.623Z,15
2015-12-10T13:19:52.563Z,14.5
2015-12-10T13:20:52.518Z,14.1
2015-12-10T13:21:52.474Z,13.9
2015-12-10T13:22:52.415Z,13.8
2015-12-10T13:23:52.371Z,13.7
2015-12-10T13:24:52.311Z,13.4
2015-12-10T13:25:52.252Z,12.9
2015-12-10T13:26:52.207Z,12.8
2015-12-10T13:27:52.148Z,12.9
2015-12-10T13:28:52.103Z,13.1
2015-12-10T13:29:52.043Z,12.7
2015-12-10T13:30:51.984Z,12.4
2015-12-10T13:31:51.940Z,12.3
2015-12-10T13:32:51.896Z,12.3
2015-12-10T13:33:51.851Z,12.4
2015-12-10T13:34:51.792Z,12.2
2015-12-10T13:35:51.732Z,11.7
2015-12-10T13:36:51.673Z,10.8
2015-12-10T13:37:51.629Z,10.5
2015-12-10T13:38:51.568Z,10.4
2015-12-10T13:39:51.524Z,10.4
2015-12-10T13:40:51.465Z,10.5
2015-12-10T13:41:51.420Z,10.3
2015-12-10T13:42:51.360Z,10
2015-12-10T13:43:51.301Z,9.7